createdAt,value
2022-10-25T00:00:39.849Z,17.01
2022-10-25T00:03:07.331Z,16.94
2022-10-25T00:05:34.533Z,16.87
2022-10-25T00:08:01.786Z,16.87
2022-10-25T00:10:29.346Z,16.86
2022-10-25T00:12:56.477Z,16.77
2022-10-25T00:15:23.885Z,16.76
2022-10-25T00:17:51.865Z,16.72
2022-10-25T00:20:20.832Z,16.70
2022-10-25T00:22:50.394Z,16.63
2022-10-25T00:25:18.652Z,16.63
2022-10-25T00:27:47.547Z,16.65
2022-10-25T00:30:15.464Z,16.64
2022-10-25T00:32:43.519Z,16.50
2022-10-25T00:35:11.349Z,16.38
2022-10-25T00:37:40.287Z,16.38
2022-10-25T00:40:10.149Z,16.28
2022-10-25T00:42:38.069Z,16.18
2022-10-25T00:45:32.011Z,16.24
2022-10-25T00:48:06.920Z,16.13
2022-10-25T00:50:49.563Z,15.94
2022-10-25T00:53:25.427Z,16.05
2022-10-25T00:55:59.458Z,16.04
2022-10-25T00:58:28.817Z,15.90
2022-10-25T01:00:56.791Z,15.85
2022-10-25T01:03:25.185Z,15.77
2022-10-25T01:05:53.087Z,15.80
2022-10-25T01:08:21.969Z,15.75
2022-10-25T01:10:49.806Z,15.83
2022-10-25T01:13:17.487Z,15.85
2022-10-25T01:15:50.415Z,15.91
2022-10-25T01:18:25.941Z,15.93
2022-10-25T01:20:56.138Z,16.00
2022-10-25T01:23:44.874Z,15.96
2022-10-25T01:26:36.645Z,15.82
2022-10-25T01:29:26.992Z,15.81
2022-10-25T01:32:00.792Z,15.87
2022-10-25T01:34:34.376Z,15.78
2022-10-25T01:37:34.011Z,15.80
2022-10-25T01:40:13.701Z,15.72
2022-10-25T01:43:15.255Z,15.72
2022-10-25T01:46:09.929Z,15.76
2022-10-25T01:48:45.631Z,15.64
2022-10-25T01:51:16.940Z,15.66
2022-10-25T01:53:45.974Z,15.66
2022-10-25T01:56:19.442Z,15.67
2022-10-25T01:59:08.987Z,15.58
2022-10-25T02:01:36.362Z,15.57
2022-10-25T02:04:19.030Z,15.63
2022-10-25T02:06:55.675Z,15.55
2022-10-25T02:09:51.672Z,15.50
2022-10-25T02:12:25.266Z,15.56
2022-10-25T02:15:00.532Z,15.76
2022-10-25T02:17:27.830Z,15.77
2022-10-25T02:19:59.281Z,15.84
2022-10-25T02:22:30.287Z,15.74
2022-10-25T02:24:58.439Z,15.79
2022-10-25T02:27:26.850Z,15.89
2022-10-25T02:29:55.187Z,15.94
2022-10-25T02:32:22.644Z,16.10
2022-10-25T02:34:50.567Z,16.35
2022-10-25T02:37:18.267Z,16.43
2022-10-25T02:39:46.199Z,16.40
2022-10-25T02:42:13.572Z,16.40
2022-10-25T02:44:40.810Z,16.38
2022-10-25T02:47:08.105Z,16.33
2022-10-25T02:49:35.402Z,16.31
2022-10-25T02:52:02.661Z,16.30
2022-10-25T02:54:29.918Z,16.26
2022-10-25T02:56:57.234Z,16.10
2022-10-25T02:59:24.867Z,16.08
2022-10-25T03:01:52.913Z,16.17
2022-10-25T03:04:20.197Z,16.05
2022-10-25T03:06:47.729Z,15.92
2022-10-25T03:09:14.934Z,15.95
2022-10-25T03:11:42.317Z,15.88
2022-10-25T03:14:09.541Z,15.68
2022-10-25T03:16:36.889Z,15.66
2022-10-25T03:19:04.241Z,15.62
2022-10-25T03:21:31.539Z,15.61
2022-10-25T03:23:58.718Z,15.47
2022-10-25T03:26:27.049Z,15.38
2022-10-25T03:28:54.337Z,15.39
2022-10-25T03:31:21.613Z,15.42
2022-10-25T03:33:48.801Z,15.40
2022-10-25T03:36:16.108Z,15.34
2022-10-25T03:38:43.632Z,15.28
2022-10-25T03:41:12.344Z,15.25
2022-10-25T03:43:39.573Z,15.23
2022-10-25T03:46:08.186Z,15.16
2022-10-25T03:48:36.395Z,15.12
2022-10-25T03:51:03.770Z,15.08
2022-10-25T03:53:31.021Z,15.12
2022-10-25T03:55:58.393Z,15.06
2022-10-25T03:58:25.632Z,15.04
2022-10-25T04:00:53.844Z,15.02
2022-10-25T04:03:20.967Z,14.98
2022-10-25T04:05:48.582Z,15.03
2022-10-25T04:08:18.489Z,15.11
2022-10-25T04:10:47.489Z,15.07
2022-10-25T04:13:16.334Z,15.04
2022-10-25T04:15:44.287Z,15.02
2022-10-25T04:18:11.356Z,15.03
2022-10-25T04:20:39.107Z,14.99
2022-10-25T04:23:07.014Z,14.93
2022-10-25T04:25:34.955Z,14.90
2022-10-25T04:28:03.503Z,14.94
2022-10-25T04:30:35.173Z,14.90
2022-10-25T04:33:05.944Z,14.88
2022-10-25T04:35:33.143Z,14.87
2022-10-25T04:38:00.320Z,15.03
2022-10-25T04:40:27.356Z,15.14
2022-10-25T04:42:55.576Z,15.11
2022-10-25T04:45:24.435Z,15.14
2022-10-25T04:47:52.262Z,15.20
2022-10-25T04:50:21.144Z,15.42
2022-10-25T04:52:48.464Z,15.49
2022-10-25T04:55:15.697Z,15.42
2022-10-25T04:57:42.795Z,15.38
2022-10-25T05:00:10.441Z,15.43
2022-10-25T05:02:37.545Z,15.41
2022-10-25T05:05:04.798Z,15.40
2022-10-25T05:07:32.792Z,15.45
2022-10-25T05:09:59.769Z,15.39
2022-10-25T05:12:27.026Z,15.48
2022-10-25T05:14:54.513Z,15.76
2022-10-25T05:17:22.387Z,15.84
2022-10-25T05:19:49.373Z,15.88
2022-10-25T05:22:17.224Z,15.95
2022-10-25T05:24:47.024Z,15.95
2022-10-25T05:27:14.153Z,16.02
2022-10-25T05:29:41.428Z,16.06
2022-10-25T05:32:08.727Z,16.01
2022-10-25T05:34:35.778Z,15.88
2022-10-25T05:37:04.948Z,15.81
2022-10-25T05:39:31.933Z,15.88
2022-10-25T05:42:00.191Z,15.75
2022-10-25T05:44:27.192Z,15.73
2022-10-25T05:46:55.173Z,15.72
2022-10-25T05:49:22.324Z,15.76
2022-10-25T05:51:49.354Z,15.75
2022-10-25T05:54:16.405Z,15.70
2022-10-25T05:56:43.413Z,15.76
2022-10-25T05:59:14.650Z,15.69
2022-10-25T06:01:43.956Z,15.87
2022-10-25T06:04:11.694Z,15.96
2022-10-25T06:06:39.509Z,15.96
2022-10-25T06:09:06.763Z,16.09
2022-10-25T06:11:34.214Z,16.08
2022-10-25T06:14:01.493Z,16.07
2022-10-25T06:16:28.516Z,16.08
2022-10-25T06:18:55.920Z,15.98
2022-10-25T06:21:24.149Z,16.06
2022-10-25T06:23:51.724Z,16.08
2022-10-25T06:26:19.999Z,16.04
2022-10-25T06:28:47.589Z,15.89
2022-10-25T06:31:15.724Z,15.90
2022-10-25T06:33:42.964Z,15.87
2022-10-25T06:36:13.256Z,15.92
2022-10-25T06:38:40.796Z,15.99
2022-10-25T06:41:11.163Z,16.02
2022-10-25T06:43:38.887Z,16.08
2022-10-25T06:46:06.755Z,16.05
2022-10-25T06:48:34.540Z,16.06
2022-10-25T06:51:02.874Z,16.03
2022-10-25T06:53:29.933Z,16.13
2022-10-25T06:56:04.989Z,16.17
2022-10-25T06:58:34.057Z,16.23
2022-10-25T07:01:05.327Z,16.25
2022-10-25T07:03:35.417Z,16.29
2022-10-25T07:06:05.148Z,16.08
2022-10-25T07:08:32.673Z,16.23
2022-10-25T07:10:59.812Z,16.12
2022-10-25T07:13:27.005Z,16.08
2022-10-25T07:15:53.995Z,16.03
2022-10-25T07:18:21.122Z,15.98
2022-10-25T07:20:50.489Z,15.97
2022-10-25T07:23:17.576Z,15.85
2022-10-25T07:25:45.683Z,15.75
2022-10-25T07:28:12.774Z,15.88
2022-10-25T07:30:43.672Z,15.91
2022-10-25T07:33:10.644Z,15.88
2022-10-25T07:35:46.798Z,15.91
2022-10-25T07:38:27.707Z,16.02
2022-10-25T07:40:55.797Z,16.07
2022-10-25T07:43:22.848Z,16.11
2022-10-25T07:45:50.149Z,16.22
2022-10-25T07:48:17.320Z,16.18
2022-10-25T07:50:44.319Z,16.15
2022-10-25T07:53:11.267Z,16.18
2022-10-25T07:55:38.339Z,16.22
2022-10-25T07:58:06.991Z,16.38
2022-10-25T08:00:35.319Z,16.29
2022-10-25T08:03:03.322Z,16.26
2022-10-25T08:05:30.333Z,16.26
2022-10-25T08:07:57.399Z,16.29
2022-10-25T08:10:24.539Z,16.42
2022-10-25T08:12:51.636Z,16.36
2022-10-25T08:15:18.717Z,16.35
2022-10-25T08:17:46.326Z,16.32
2022-10-25T08:20:13.961Z,16.29
2022-10-25T08:22:40.995Z,16.29
2022-10-25T08:25:08.193Z,16.36
2022-10-25T08:27:35.250Z,16.41
2022-10-25T08:30:02.285Z,16.44
2022-10-25T08:32:31.251Z,16.49
2022-10-25T08:34:58.199Z,16.53
2022-10-25T08:37:25.287Z,16.64
2022-10-25T08:39:54.945Z,16.65
2022-10-25T08:42:28.168Z,16.74
2022-10-25T08:44:58.180Z,16.93
2022-10-25T08:47:33.428Z,17.29
2022-10-25T08:50:05.687Z,17.60
2022-10-25T08:52:35.737Z,17.85
2022-10-25T08:55:05.729Z,18.17
2022-10-25T08:57:40.693Z,18.46
2022-10-25T09:00:12.611Z,18.85
2022-10-25T09:02:42.860Z,18.88
2022-10-25T09:05:16.616Z,18.75
2022-10-25T09:07:50.035Z,18.52
2022-10-25T09:10:38.820Z,18.61
2022-10-25T09:13:15.255Z,18.54
2022-10-25T09:15:48.422Z,18.74
2022-10-25T09:18:16.562Z,19.06
2022-10-25T09:20:51.076Z,19.38
2022-10-25T09:23:24.251Z,19.53
2022-10-25T09:26:07.340Z,19.44
2022-10-25T09:28:51.669Z,19.58
2022-10-25T09:31:22.282Z,19.39
2022-10-25T09:33:51.537Z,19.07
2022-10-25T09:36:18.923Z,19.10
2022-10-25T09:38:45.945Z,19.14
2022-10-25T09:41:28.482Z,19.10
2022-10-25T09:44:03.070Z,19.18
2022-10-25T09:46:56.577Z,19.36
2022-10-25T09:49:23.612Z,19.32
2022-10-25T09:51:57.582Z,19.61
2022-10-25T09:54:28.733Z,19.57
2022-10-25T09:56:55.777Z,19.84
2022-10-25T09:59:22.916Z,20.06
2022-10-25T10:01:50.277Z,20.26
2022-10-25T10:04:37.404Z,20.37
2022-10-25T10:07:22.193Z,20.33
2022-10-25T10:09:51.602Z,20.49
2022-10-25T10:12:54.224Z,20.63
2022-10-25T10:16:02.395Z,20.85
2022-10-25T10:18:34.460Z,20.62
2022-10-25T10:21:06.170Z,20.33
2022-10-25T10:23:36.569Z,20.29
2022-10-25T10:26:24.618Z,20.54
2022-10-25T10:29:05.326Z,20.63
2022-10-25T10:31:41.405Z,20.65
2022-10-25T10:34:50.372Z,20.71
2022-10-25T10:37:22.153Z,21.23
2022-10-25T10:39:54.220Z,21.16
2022-10-25T10:42:24.516Z,20.95
2022-10-25T10:45:11.830Z,21.46
2022-10-25T10:47:45.189Z,20.97
2022-10-25T10:50:20.665Z,21.34
2022-10-25T10:53:29.605Z,21.38
2022-10-25T10:55:59.987Z,21.34
2022-10-25T10:58:35.605Z,21.42
2022-10-25T11:01:06.181Z,21.35
2022-10-25T11:03:49.086Z,20.63
2022-10-25T11:06:33.093Z,20.53
2022-10-25T11:09:12.542Z,21.20
2022-10-25T11:11:40.678Z,21.17
2022-10-25T11:14:12.647Z,21.32
2022-10-25T11:17:04.618Z,21.21
2022-10-25T11:19:51.533Z,21.25
2022-10-25T11:25:41.586Z,21.46
2022-10-25T11:28:18.192Z,21.53
2022-10-25T11:30:48.604Z,21.35
2022-10-25T11:33:37.717Z,21.48
2022-10-25T11:36:33.314Z,20.65
2022-10-25T11:39:22.513Z,20.99
2022-10-25T11:41:53.583Z,20.79
2022-10-25T11:45:12.348Z,20.92
2022-10-25T11:48:13.361Z,20.78
2022-10-25T11:50:54.729Z,20.68
2022-10-25T11:53:28.302Z,20.86
2022-10-25T11:56:03.540Z,20.99
2022-10-25T11:58:50.469Z,21.06
2022-10-25T12:12:28.847Z,20.76
2022-10-25T12:15:00.507Z,20.82
2022-10-25T12:18:37.661Z,20.95
2022-10-25T12:21:08.875Z,21.04
2022-10-25T12:24:52.609Z,20.81
2022-10-25T12:27:22.520Z,20.99
2022-10-25T12:29:55.816Z,20.92
2022-10-25T12:32:44.461Z,21.01
2022-10-25T12:35:21.682Z,20.69
2022-10-25T12:38:07.989Z,20.72
2022-10-25T12:40:46.041Z,20.88
2022-10-25T12:43:41.081Z,20.80
2022-10-25T12:46:17.542Z,20.73
2022-10-25T12:49:09.666Z,20.83
2022-10-25T12:51:52.875Z,20.81
2022-10-25T12:54:49.406Z,20.90
2022-10-25T12:57:25.857Z,20.98
2022-10-25T13:00:08.892Z,21.13
2022-10-25T13:02:42.264Z,21.16
2022-10-25T13:05:34.543Z,21.23
2022-10-25T13:08:06.119Z,21.18
2022-10-25T13:10:41.840Z,20.94
2022-10-25T13:13:20.516Z,20.91
2022-10-25T13:15:50.670Z,20.88
2022-10-25T13:18:42.861Z,20.88
2022-10-25T13:21:13.248Z,20.95
2022-10-25T13:23:43.581Z,21.04
2022-10-25T13:26:14.338Z,21.14
2022-10-25T13:28:45.552Z,21.33
2022-10-25T13:31:34.869Z,21.25
2022-10-25T13:34:15.366Z,21.18
2022-10-25T13:36:53.646Z,21.17
2022-10-25T13:39:33.309Z,21.04
2022-10-25T13:42:14.764Z,21.05
2022-10-25T13:44:56.933Z,21.19
2022-10-25T13:47:38.544Z,21.15
2022-10-25T13:50:32.372Z,21.04
2022-10-25T13:53:06.098Z,21.00
2022-10-25T13:55:36.985Z,20.98
2022-10-25T13:58:31.674Z,20.99
2022-10-25T14:01:15.037Z,21.26
2022-10-25T14:04:06.368Z,21.26
2022-10-25T14:06:34.099Z,21.23
2022-10-25T14:09:22.672Z,21.14
2022-10-25T14:12:02.381Z,21.24
2022-10-25T14:14:48.189Z,21.48
2022-10-25T14:17:33.910Z,21.17
2022-10-25T14:20:07.325Z,21.10
2022-10-25T14:22:38.911Z,21.16
2022-10-25T14:25:15.776Z,21.45
2022-10-25T14:27:43.266Z,21.46
2022-10-25T14:30:23.348Z,21.43
2022-10-25T14:33:00.014Z,21.16
2022-10-25T14:35:36.077Z,21.09
2022-10-25T14:38:13.760Z,21.16
2022-10-25T14:40:41.035Z,21.07
2022-10-25T14:43:26.874Z,20.97
2022-10-25T14:45:57.281Z,21.17
2022-10-25T14:48:24.601Z,21.03
2022-10-25T14:50:53.245Z,20.88
2022-10-25T14:53:20.913Z,20.81
2022-10-25T14:56:01.250Z,20.97
2022-10-25T14:58:39.871Z,21.14
2022-10-25T15:01:10.467Z,21.09
2022-10-25T15:03:52.400Z,21.11
2022-10-25T15:06:23.027Z,20.90
2022-10-25T15:09:10.184Z,20.76
2022-10-25T15:12:04.414Z,20.84
2022-10-25T15:14:32.327Z,20.75
2022-10-25T15:17:15.974Z,20.69
2022-10-25T15:20:13.935Z,20.60
2022-10-25T15:22:46.203Z,20.66
2022-10-25T15:25:23.156Z,20.65
2022-10-25T15:27:54.754Z,20.58
2022-10-25T15:30:43.194Z,20.50
2022-10-25T15:33:13.222Z,20.46
2022-10-25T15:36:01.366Z,20.28
2022-10-25T15:38:47.777Z,20.06
2022-10-25T15:41:15.487Z,19.80
2022-10-25T15:43:42.913Z,19.58
2022-10-25T15:46:33.859Z,19.54
2022-10-25T15:49:05.159Z,19.46
2022-10-25T15:51:34.222Z,19.31
2022-10-25T15:54:02.281Z,19.18
2022-10-25T15:56:30.107Z,19.08
2022-10-25T15:59:00.429Z,19.08
2022-10-25T16:01:28.425Z,18.90
2022-10-25T16:03:55.897Z,18.85
2022-10-25T16:06:24.585Z,18.73
2022-10-25T16:08:51.802Z,18.70
2022-10-25T16:11:21.177Z,18.83
2022-10-25T16:13:53.244Z,18.71
2022-10-25T16:16:39.991Z,18.59
2022-10-25T16:19:16.230Z,18.51
2022-10-25T16:21:44.315Z,18.45
2022-10-25T16:24:12.972Z,18.49
2022-10-25T16:26:48.824Z,18.42
2022-10-25T16:29:18.777Z,18.35
2022-10-25T16:31:46.645Z,18.29
2022-10-25T16:34:17.204Z,18.25
2022-10-25T16:36:48.324Z,18.18
2022-10-25T16:39:17.606Z,18.11
2022-10-25T16:41:46.399Z,18.04
2022-10-25T16:44:15.700Z,18.05
2022-10-25T16:46:43.910Z,17.99
2022-10-25T16:49:14.133Z,17.86
2022-10-25T16:51:45.035Z,17.82
2022-10-25T16:54:12.983Z,17.88
2022-10-25T16:56:40.461Z,17.76
2022-10-25T16:59:08.154Z,17.71
2022-10-25T17:01:38.985Z,17.68
2022-10-25T17:04:10.410Z,17.55
2022-10-25T17:06:42.051Z,17.55
2022-10-25T17:09:10.492Z,17.51
2022-10-25T17:11:37.641Z,17.47
2022-10-25T17:14:05.187Z,17.43
2022-10-25T17:16:34.310Z,17.38
2022-10-25T17:19:03.946Z,17.35
2022-10-25T17:21:34.107Z,17.36
2022-10-25T17:24:03.037Z,17.31
2022-10-25T17:26:30.619Z,17.36
2022-10-25T17:28:58.718Z,17.41
2022-10-25T17:31:28.241Z,17.43
2022-10-25T17:33:57.651Z,17.21
2022-10-25T17:36:27.285Z,17.28
2022-10-25T17:38:56.512Z,17.17
2022-10-25T17:41:23.819Z,17.10
2022-10-25T17:43:54.492Z,17.03
2022-10-25T17:46:28.201Z,17.01
2022-10-25T17:49:03.625Z,17.11
2022-10-25T17:51:32.463Z,17.03
2022-10-25T17:53:59.842Z,17.02
2022-10-25T17:56:28.801Z,16.88
2022-10-25T17:58:57.794Z,16.94
2022-10-25T18:01:28.797Z,16.93
2022-10-25T18:03:56.393Z,16.89
2022-10-25T18:06:25.522Z,16.88
2022-10-25T18:08:58.893Z,16.83
2022-10-25T18:11:28.570Z,16.73
2022-10-25T18:14:02.257Z,16.75
2022-10-25T18:16:31.508Z,16.54
2022-10-25T18:19:05.378Z,16.62
2022-10-25T18:21:33.957Z,16.57
2022-10-25T18:24:05.550Z,16.56
2022-10-25T18:26:34.941Z,16.61
2022-10-25T18:29:02.893Z,16.60
2022-10-25T18:31:30.874Z,16.61
2022-10-25T18:34:03.730Z,16.65
2022-10-25T18:36:31.910Z,16.60
2022-10-25T18:38:59.550Z,16.65
2022-10-25T18:41:30.512Z,16.65
2022-10-25T18:43:59.324Z,16.58
2022-10-25T18:46:31.235Z,16.54
2022-10-25T18:49:00.184Z,16.52
2022-10-25T18:51:29.035Z,16.55
2022-10-25T18:53:58.513Z,16.51
2022-10-25T18:56:27.436Z,16.46
2022-10-25T18:58:56.970Z,16.40
2022-10-25T19:01:27.886Z,16.42
2022-10-25T19:03:57.485Z,16.41
2022-10-25T19:06:25.623Z,16.29
2022-10-25T19:08:53.897Z,16.30
2022-10-25T19:11:21.795Z,16.33
2022-10-25T19:13:53.752Z,16.36
2022-10-25T19:16:22.666Z,16.31
2022-10-25T19:18:50.611Z,16.31
2022-10-25T19:21:21.622Z,16.37
2022-10-25T19:23:50.073Z,16.33
2022-10-25T19:26:20.906Z,16.31
2022-10-25T19:29:00.519Z,16.34
2022-10-25T19:31:28.861Z,16.36
2022-10-25T19:34:00.596Z,16.32
2022-10-25T19:36:30.961Z,16.25
2022-10-25T19:38:59.746Z,16.22
2022-10-25T19:41:27.460Z,16.18
2022-10-25T19:43:57.557Z,16.17
2022-10-25T19:46:25.714Z,16.13
2022-10-25T19:48:56.760Z,16.06
2022-10-25T19:51:24.456Z,16.10
2022-10-25T19:53:52.269Z,16.04
2022-10-25T19:56:23.108Z,15.96
2022-10-25T19:58:51.213Z,15.99
2022-10-25T20:01:29.469Z,15.93
2022-10-25T20:03:59.919Z,15.93
2022-10-25T20:06:31.864Z,15.95
2022-10-25T20:09:02.239Z,15.88
2022-10-25T20:11:29.882Z,15.88
2022-10-25T20:14:01.440Z,15.88
2022-10-25T20:16:29.984Z,15.85
2022-10-25T20:19:02.424Z,15.88
2022-10-25T20:21:34.054Z,15.82
2022-10-25T20:24:05.619Z,15.77
2022-10-25T20:26:35.653Z,15.70
2022-10-25T20:29:17.119Z,15.68
2022-10-25T20:31:47.747Z,15.65
2022-10-25T20:34:15.913Z,15.67
2022-10-25T20:36:45.816Z,15.59
2022-10-25T20:39:15.719Z,15.65
2022-10-25T20:41:45.670Z,15.57
2022-10-25T20:44:15.597Z,15.54
2022-10-25T20:46:56.981Z,15.36
2022-10-25T20:49:24.554Z,15.40
2022-10-25T20:51:51.766Z,15.43
2022-10-25T20:54:20.280Z,15.43
2022-10-25T20:56:47.545Z,15.47
2022-10-25T20:59:16.041Z,15.48
2022-10-25T21:01:43.377Z,15.58
2022-10-25T21:07:21.863Z,15.97
2022-10-25T21:09:49.601Z,15.92
2022-10-25T21:12:16.943Z,15.88
2022-10-25T21:14:44.152Z,15.78
2022-10-25T21:17:11.301Z,15.72
2022-10-25T21:19:39.206Z,15.69
2022-10-25T21:22:07.369Z,15.39
2022-10-25T21:27:03.448Z,15.16
2022-10-25T21:29:32.046Z,15.20
2022-10-25T21:31:59.534Z,15.23
2022-10-25T21:34:27.909Z,15.09
2022-10-25T21:36:56.797Z,15.06
2022-10-25T21:39:25.201Z,15.05
2022-10-25T21:41:53.737Z,15.10
2022-10-25T21:44:22.245Z,15.22
2022-10-25T21:46:52.000Z,15.34
2022-10-25T21:49:19.437Z,15.51
2022-10-25T21:51:46.622Z,15.67
2022-10-25T21:54:14.009Z,15.81
2022-10-25T21:56:41.211Z,15.91
2022-10-25T21:59:08.265Z,15.94
2022-10-25T22:01:35.502Z,15.99
2022-10-25T22:04:03.009Z,15.98
2022-10-25T22:06:31.192Z,15.83
2022-10-25T22:08:59.900Z,15.69
2022-10-25T22:11:28.842Z,15.67
2022-10-25T22:13:57.745Z,15.59
2022-10-25T22:16:25.333Z,15.49
2022-10-25T22:18:58.849Z,15.42
2022-10-25T22:21:27.697Z,15.47
2022-10-25T22:23:55.825Z,15.46
2022-10-25T22:26:23.527Z,15.55
2022-10-25T22:28:56.195Z,15.66
2022-10-25T22:31:25.122Z,15.73
2022-10-25T22:33:54.885Z,15.65
2022-10-25T22:36:24.533Z,15.68
2022-10-25T22:38:52.995Z,15.65
2022-10-25T22:41:22.854Z,15.64
2022-10-25T22:43:51.217Z,15.67
2022-10-25T22:46:25.652Z,15.65
2022-10-25T22:48:54.442Z,15.63
2022-10-25T22:51:23.597Z,15.70
2022-10-25T22:53:50.682Z,15.72
2022-10-25T22:56:19.505Z,15.67
2022-10-25T22:58:50.989Z,15.48
2022-10-25T23:01:21.195Z,15.34
2022-10-25T23:03:50.187Z,15.35
2022-10-25T23:06:19.669Z,15.28
2022-10-25T23:08:47.968Z,15.16
2022-10-25T23:11:16.889Z,15.16
2022-10-25T23:13:44.113Z,15.38
2022-10-25T23:16:12.926Z,15.23
2022-10-25T23:18:41.763Z,15.07
2022-10-25T23:21:17.553Z,14.97
2022-10-25T23:23:45.269Z,15.02
2022-10-25T23:26:16.846Z,15.14
2022-10-25T23:28:45.419Z,15.21
2022-10-25T23:31:13.761Z,15.27
2022-10-25T23:33:45.939Z,15.30
2022-10-25T23:36:13.114Z,15.37
2022-10-25T23:38:40.471Z,15.42
2022-10-25T23:41:08.925Z,15.50
2022-10-25T23:43:36.802Z,15.51
2022-10-25T23:46:05.531Z,15.54
2022-10-25T23:48:33.612Z,15.57
2022-10-25T23:53:29.848Z,15.59
2022-10-25T23:55:57.130Z,15.55
2022-10-25T23:58:24.597Z,15.45
